sensor_id;sensor_type;location;lat;lon;timestamp;P1;durP1;ratioP1;P2;durP2;ratioP2
46391;SDS011;32098;49.448;7.904;2023-02-21T00:01:43;7.00;;;4.17;;
46391;SDS011;32098;49.448;7.904;2023-02-21T00:04:28;9.37;;;4.47;;
46391;SDS011;32098;49.448;7.904;2023-02-21T00:07:14;8.53;;;4.67;;
46391;SDS011;32098;49.448;7.904;2023-02-21T00:09:59;10.70;;;5.20;;
46391;SDS011;32098;49.448;7.904;2023-02-21T00:12:46;8.90;;;5.47;;
46391;SDS011;32098;49.448;7.904;2023-02-21T00:15:33;10.17;;;5.30;;
46391;SDS011;32098;49.448;7.904;2023-02-21T00:18:19;8.70;;;4.70;;
46391;SDS011;32098;49.448;7.904;2023-02-21T00:21:05;11.00;;;5.40;;
46391;SDS011;32098;49.448;7.904;2023-02-21T00:23:50;9.87;;;5.23;;
46391;SDS011;32098;49.448;7.904;2023-02-21T00:26:36;11.03;;;5.60;;
46391;SDS011;32098;49.448;7.904;2023-02-21T00:29:21;12.50;;;5.93;;
46391;SDS011;32098;49.448;7.904;2023-02-21T00:32:06;9.23;;;5.23;;
46391;SDS011;32098;49.448;7.904;2023-02-21T00:34:55;8.37;;;5.50;;
46391;SDS011;32098;49.448;7.904;2023-02-21T00:37:43;8.63;;;4.93;;
46391;SDS011;32098;49.448;7.904;2023-02-21T00:40:29;10.33;;;5.30;;
46391;SDS011;32098;49.448;7.904;2023-02-21T00:43:16;10.03;;;5.50;;
46391;SDS011;32098;49.448;7.904;2023-02-21T00:46:02;10.80;;;5.23;;
46391;SDS011;32098;49.448;7.904;2023-02-21T00:48:47;9.60;;;4.83;;
46391;SDS011;32098;49.448;7.904;2023-02-21T00:51:32;9.90;;;5.27;;
46391;SDS011;32098;49.448;7.904;2023-02-21T00:54:18;9.67;;;4.90;;
46391;SDS011;32098;49.448;7.904;2023-02-21T00:57:04;9.17;;;5.77;;
46391;SDS011;32098;49.448;7.904;2023-02-21T00:59:51;8.90;;;5.23;;
46391;SDS011;32098;49.448;7.904;2023-02-21T01:02:37;9.97;;;5.73;;
46391;SDS011;32098;49.448;7.904;2023-02-21T01:05:25;6.87;;;5.10;;
46391;SDS011;32098;49.448;7.904;2023-02-21T01:08:10;9.67;;;5.57;;
46391;SDS011;32098;49.448;7.904;2023-02-21T01:10:56;9.33;;;5.93;;
46391;SDS011;32098;49.448;7.904;2023-02-21T01:13:45;12.47;;;6.67;;
46391;SDS011;32098;49.448;7.904;2023-02-21T01:16:31;9.00;;;6.00;;
46391;SDS011;32098;49.448;7.904;2023-02-21T01:19:17;10.87;;;6.43;;
46391;SDS011;32098;49.448;7.904;2023-02-21T01:22:03;11.50;;;5.67;;
46391;SDS011;32098;49.448;7.904;2023-02-21T01:24:53;11.57;;;6.73;;
46391;SDS011;32098;49.448;7.904;2023-02-21T01:27:40;9.90;;;6.23;;
46391;SDS011;32098;49.448;7.904;2023-02-21T01:30:30;15.00;;;6.23;;
46391;SDS011;32098;49.448;7.904;2023-02-21T01:33:16;11.87;;;6.10;;
46391;SDS011;32098;49.448;7.904;2023-02-21T01:36:03;9.33;;;6.00;;
46391;SDS011;32098;49.448;7.904;2023-02-21T01:38:50;10.40;;;6.10;;
46391;SDS011;32098;49.448;7.904;2023-02-21T01:41:36;10.27;;;6.10;;
46391;SDS011;32098;49.448;7.904;2023-02-21T01:47:25;10.97;;;6.30;;
46391;SDS011;32098;49.448;7.904;2023-02-21T01:50:17;12.17;;;5.83;;
46391;SDS011;32098;49.448;7.904;2023-02-21T01:53:10;10.90;;;6.23;;
46391;SDS011;32098;49.448;7.904;2023-02-21T01:55:59;13.47;;;6.87;;
46391;SDS011;32098;49.448;7.904;2023-02-21T01:58:48;10.93;;;6.20;;
46391;SDS011;32098;49.448;7.904;2023-02-21T02:05:06;13.23;;;6.67;;
46391;SDS011;32098;49.448;7.904;2023-02-21T02:07:56;11.17;;;6.50;;
46391;SDS011;32098;49.448;7.904;2023-02-21T02:10:43;12.90;;;7.30;;
46391;SDS011;32098;49.448;7.904;2023-02-21T02:13:44;11.80;;;6.70;;
46391;SDS011;32098;49.448;7.904;2023-02-21T02:16:39;13.07;;;7.03;;
46391;SDS011;32098;49.448;7.904;2023-02-21T02:24:59;11.13;;;6.47;;
46391;SDS011;32098;49.448;7.904;2023-02-21T02:27:46;14.90;;;6.57;;
46391;SDS011;32098;49.448;7.904;2023-02-21T02:36:23;10.90;;;6.47;;
46391;SDS011;32098;49.448;7.904;2023-02-21T02:39:12;13.67;;;6.97;;
46391;SDS011;32098;49.448;7.904;2023-02-21T02:41:55;12.13;;;6.40;;
46391;SDS011;32098;49.448;7.904;2023-02-21T02:44:28;12.87;;;6.70;;
46391;SDS011;32098;49.448;7.904;2023-02-21T02:47:03;15.03;;;6.43;;
46391;SDS011;32098;49.448;7.904;2023-02-21T02:49:34;10.37;;;6.70;;
46391;SDS011;32098;49.448;7.904;2023-02-21T02:52:07;9.50;;;6.27;;
46391;SDS011;32098;49.448;7.904;2023-02-21T02:54:36;12.90;;;6.70;;
46391;SDS011;32098;49.448;7.904;2023-02-21T02:57:03;14.07;;;7.60;;
46391;SDS011;32098;49.448;7.904;2023-02-21T02:59:41;11.80;;;7.10;;
46391;SDS011;32098;49.448;7.904;2023-02-21T03:02:31;10.17;;;6.90;;
46391;SDS011;32098;49.448;7.904;2023-02-21T03:05:16;9.33;;;6.43;;
46391;SDS011;32098;49.448;7.904;2023-02-21T03:08:13;10.80;;;6.70;;
46391;SDS011;32098;49.448;7.904;2023-02-21T03:10:52;8.87;;;6.10;;
46391;SDS011;32098;49.448;7.904;2023-02-21T03:13:37;11.13;;;6.20;;
46391;SDS011;32098;49.448;7.904;2023-02-21T03:18:52;10.20;;;6.63;;
46391;SDS011;32098;49.448;7.904;2023-02-21T03:21:26;13.13;;;6.87;;
46391;SDS011;32098;49.448;7.904;2023-02-21T03:23:59;9.40;;;6.13;;
46391;SDS011;32098;49.448;7.904;2023-02-21T03:26:29;12.47;;;7.13;;
46391;SDS011;32098;49.448;7.904;2023-02-21T03:29:15;15.87;;;7.40;;
46391;SDS011;32098;49.448;7.904;2023-02-21T03:31:44;11.53;;;7.90;;
46391;SDS011;32098;49.448;7.904;2023-02-21T03:34:15;11.63;;;7.60;;
46391;SDS011;32098;49.448;7.904;2023-02-21T03:36:42;12.00;;;7.30;;
46391;SDS011;32098;49.448;7.904;2023-02-21T03:39:12;11.20;;;6.57;;
46391;SDS011;32098;49.448;7.904;2023-02-21T03:41:39;10.03;;;6.47;;
46391;SDS011;32098;49.448;7.904;2023-02-21T03:44:06;10.37;;;6.63;;
46391;SDS011;32098;49.448;7.904;2023-02-21T03:46:33;16.70;;;7.47;;
46391;SDS011;32098;49.448;7.904;2023-02-21T03:49:02;11.37;;;7.00;;
46391;SDS011;32098;49.448;7.904;2023-02-21T03:51:28;11.70;;;6.50;;
46391;SDS011;32098;49.448;7.904;2023-02-21T03:53:56;11.60;;;6.40;;
46391;SDS011;32098;49.448;7.904;2023-02-21T03:56:32;10.43;;;6.10;;
46391;SDS011;32098;49.448;7.904;2023-02-21T03:59:25;11.90;;;6.63;;
46391;SDS011;32098;49.448;7.904;2023-02-21T04:01:52;10.17;;;5.97;;
46391;SDS011;32098;49.448;7.904;2023-02-21T04:04:20;11.77;;;6.80;;
46391;SDS011;32098;49.448;7.904;2023-02-21T04:06:56;12.07;;;7.00;;
46391;SDS011;32098;49.448;7.904;2023-02-21T04:09:23;12.57;;;6.70;;
46391;SDS011;32098;49.448;7.904;2023-02-21T04:11:51;14.07;;;7.27;;
46391;SDS011;32098;49.448;7.904;2023-02-21T04:14:19;8.80;;;6.60;;
46391;SDS011;32098;49.448;7.904;2023-02-21T04:16:46;9.03;;;6.87;;
46391;SDS011;32098;49.448;7.904;2023-02-21T04:19:13;11.00;;;6.50;;
46391;SDS011;32098;49.448;7.904;2023-02-21T04:21:40;11.83;;;6.63;;
46391;SDS011;32098;49.448;7.904;2023-02-21T04:24:08;11.73;;;6.23;;
46391;SDS011;32098;49.448;7.904;2023-02-21T04:26:35;13.47;;;6.83;;
46391;SDS011;32098;49.448;7.904;2023-02-21T04:29:03;14.27;;;7.70;;
46391;SDS011;32098;49.448;7.904;2023-02-21T04:31:30;13.63;;;7.23;;
46391;SDS011;32098;49.448;7.904;2023-02-21T04:34:01;13.10;;;7.17;;
46391;SDS011;32098;49.448;7.904;2023-02-21T04:36:40;11.93;;;6.53;;
46391;SDS011;32098;49.448;7.904;2023-02-21T04:39:07;10.77;;;6.53;;
46391;SDS011;32098;49.448;7.904;2023-02-21T04:41:34;14.17;;;7.70;;
46391;SDS011;32098;49.448;7.904;2023-02-21T04:44:02;12.43;;;6.60;;
46391;SDS011;32098;49.448;7.904;2023-02-21T04:46:31;9.97;;;6.63;;
46391;SDS011;32098;49.448;7.904;2023-02-21T04:48:58;13.07;;;7.53;;
46391;SDS011;32098;49.448;7.904;2023-02-21T04:51:28;12.20;;;6.23;;
46391;SDS011;32098;49.448;7.904;2023-02-21T04:53:56;10.40;;;6.03;;
46391;SDS011;32098;49.448;7.904;2023-02-21T04:56:24;11.67;;;6.70;;
46391;SDS011;32098;49.448;7.904;2023-02-21T04:58:53;15.80;;;7.93;;
46391;SDS011;32098;49.448;7.904;2023-02-21T05:01:25;12.77;;;7.20;;
46391;SDS011;32098;49.448;7.904;2023-02-21T05:03:54;11.80;;;6.60;;
46391;SDS011;32098;49.448;7.904;2023-02-21T05:06:22;14.37;;;7.97;;
46391;SDS011;32098;49.448;7.904;2023-02-21T05:08:50;13.27;;;7.53;;
46391;SDS011;32098;49.448;7.904;2023-02-21T05:11:18;13.67;;;7.63;;
46391;SDS011;32098;49.448;7.904;2023-02-21T05:13:46;12.47;;;6.83;;
46391;SDS011;32098;49.448;7.904;2023-02-21T05:16:14;14.77;;;7.10;;
46391;SDS011;32098;49.448;7.904;2023-02-21T05:18:41;10.43;;;6.87;;
46391;SDS011;32098;49.448;7.904;2023-02-21T05:21:09;13.00;;;6.87;;
46391;SDS011;32098;49.448;7.904;2023-02-21T05:23:37;10.60;;;6.73;;
46391;SDS011;32098;49.448;7.904;2023-02-21T05:26:08;11.20;;;6.50;;
46391;SDS011;32098;49.448;7.904;2023-02-21T05:28:38;12.23;;;7.27;;
46391;SDS011;32098;49.448;7.904;2023-02-21T05:31:06;11.13;;;7.17;;
46391;SDS011;32098;49.448;7.904;2023-02-21T05:33:33;10.83;;;6.50;;
46391;SDS011;32098;49.448;7.904;2023-02-21T05:36:00;9.53;;;6.23;;
46391;SDS011;32098;49.448;7.904;2023-02-21T05:38:27;11.70;;;7.00;;
46391;SDS011;32098;49.448;7.904;2023-02-21T05:40:54;11.27;;;6.87;;
46391;SDS011;32098;49.448;7.904;2023-02-21T05:43:21;11.43;;;6.97;;
46391;SDS011;32098;49.448;7.904;2023-02-21T05:45:48;10.53;;;6.93;;
46391;SDS011;32098;49.448;7.904;2023-02-21T05:48:14;12.07;;;7.37;;
46391;SDS011;32098;49.448;7.904;2023-02-21T05:50:42;11.50;;;6.97;;
46391;SDS011;32098;49.448;7.904;2023-02-21T05:53:10;12.13;;;6.90;;
46391;SDS011;32098;49.448;7.904;2023-02-21T05:55:37;11.07;;;7.67;;
46391;SDS011;32098;49.448;7.904;2023-02-21T05:58:05;12.43;;;7.27;;
46391;SDS011;32098;49.448;7.904;2023-02-21T06:00:32;13.37;;;7.60;;
46391;SDS011;32098;49.448;7.904;2023-02-21T06:02:59;11.80;;;7.60;;
46391;SDS011;32098;49.448;7.904;2023-02-21T06:05:30;12.77;;;7.33;;
46391;SDS011;32098;49.448;7.904;2023-02-21T06:07:57;10.67;;;6.43;;
46391;SDS011;32098;49.448;7.904;2023-02-21T06:10:24;10.60;;;6.07;;
46391;SDS011;32098;49.448;7.904;2023-02-21T06:12:51;9.30;;;5.97;;
46391;SDS011;32098;49.448;7.904;2023-02-21T06:15:18;10.53;;;6.73;;
46391;SDS011;32098;49.448;7.904;2023-02-21T06:17:45;10.93;;;6.30;;
46391;SDS011;32098;49.448;7.904;2023-02-21T06:20:12;10.63;;;6.83;;
46391;SDS011;32098;49.448;7.904;2023-02-21T06:22:43;11.40;;;7.10;;
46391;SDS011;32098;49.448;7.904;2023-02-21T06:25:11;10.70;;;6.17;;
46391;SDS011;32098;49.448;7.904;2023-02-21T06:27:38;11.40;;;6.10;;
46391;SDS011;32098;49.448;7.904;2023-02-21T06:30:05;11.63;;;6.50;;
46391;SDS011;32098;49.448;7.904;2023-02-21T06:32:33;12.47;;;6.07;;
46391;SDS011;32098;49.448;7.904;2023-02-21T06:35:00;9.97;;;5.90;;
46391;SDS011;32098;49.448;7.904;2023-02-21T06:37:28;11.37;;;7.07;;
46391;SDS011;32098;49.448;7.904;2023-02-21T06:39:55;10.20;;;6.60;;
46391;SDS011;32098;49.448;7.904;2023-02-21T06:42:22;11.53;;;5.80;;
46391;SDS011;32098;49.448;7.904;2023-02-21T06:44:49;11.90;;;6.30;;
46391;SDS011;32098;49.448;7.904;2023-02-21T06:47:16;11.53;;;7.30;;
46391;SDS011;32098;49.448;7.904;2023-02-21T06:49:44;11.77;;;6.90;;
46391;SDS011;32098;49.448;7.904;2023-02-21T06:52:11;11.70;;;6.43;;
46391;SDS011;32098;49.448;7.904;2023-02-21T06:54:41;11.37;;;6.83;;
46391;SDS011;32098;49.448;7.904;2023-02-21T06:57:08;10.77;;;6.80;;
46391;SDS011;32098;49.448;7.904;2023-02-21T06:59:35;10.23;;;6.37;;
46391;SDS011;32098;49.448;7.904;2023-02-21T07:02:02;10.90;;;6.70;;
46391;SDS011;32098;49.448;7.904;2023-02-21T07:04:32;9.70;;;6.13;;
46391;SDS011;32098;49.448;7.904;2023-02-21T07:06:59;10.80;;;7.13;;
46391;SDS011;32098;49.448;7.904;2023-02-21T07:09:25;12.17;;;6.40;;
46391;SDS011;32098;49.448;7.904;2023-02-21T07:11:52;13.83;;;6.60;;
46391;SDS011;32098;49.448;7.904;2023-02-21T07:14:19;13.20;;;7.90;;
46391;SDS011;32098;49.448;7.904;2023-02-21T07:16:46;11.40;;;7.57;;
46391;SDS011;32098;49.448;7.904;2023-02-21T07:19:16;13.83;;;7.37;;
46391;SDS011;32098;49.448;7.904;2023-02-21T07:21:47;11.00;;;7.10;;
46391;SDS011;32098;49.448;7.904;2023-02-21T07:24:15;13.00;;;8.07;;
46391;SDS011;32098;49.448;7.904;2023-02-21T07:26:43;11.37;;;7.67;;
46391;SDS011;32098;49.448;7.904;2023-02-21T07:29:10;12.90;;;7.40;;
46391;SDS011;32098;49.448;7.904;2023-02-21T07:31:36;11.83;;;7.20;;
46391;SDS011;32098;49.448;7.904;2023-02-21T07:34:03;11.70;;;7.30;;
46391;SDS011;32098;49.448;7.904;2023-02-21T07:36:30;12.83;;;7.40;;
46391;SDS011;32098;49.448;7.904;2023-02-21T07:38:57;11.57;;;7.00;;
46391;SDS011;32098;49.448;7.904;2023-02-21T07:41:24;11.33;;;7.50;;
46391;SDS011;32098;49.448;7.904;2023-02-21T07:43:51;11.47;;;7.57;;
46391;SDS011;32098;49.448;7.904;2023-02-21T07:46:19;11.83;;;7.57;;
46391;SDS011;32098;49.448;7.904;2023-02-21T07:48:46;13.40;;;7.70;;
46391;SDS011;32098;49.448;7.904;2023-02-21T07:51:14;13.30;;;7.13;;
46391;SDS011;32098;49.448;7.904;2023-02-21T07:53:41;14.10;;;7.50;;
46391;SDS011;32098;49.448;7.904;2023-02-21T07:56:08;12.43;;;7.00;;
46391;SDS011;32098;49.448;7.904;2023-02-21T07:58:34;11.23;;;7.37;;
46391;SDS011;32098;49.448;7.904;2023-02-21T08:01:06;11.77;;;7.07;;
46391;SDS011;32098;49.448;7.904;2023-02-21T08:03:33;10.63;;;7.17;;
46391;SDS011;32098;49.448;7.904;2023-02-21T08:06:00;11.10;;;7.13;;
46391;SDS011;32098;49.448;7.904;2023-02-21T08:08:27;12.00;;;6.70;;
46391;SDS011;32098;49.448;7.904;2023-02-21T08:10:54;9.73;;;6.50;;
46391;SDS011;32098;49.448;7.904;2023-02-21T08:13:22;10.90;;;7.07;;
46391;SDS011;32098;49.448;7.904;2023-02-21T08:15:51;10.00;;;6.70;;
46391;SDS011;32098;49.448;7.904;2023-02-21T08:18:19;9.77;;;7.20;;
46391;SDS011;32098;49.448;7.904;2023-02-21T08:20:50;10.23;;;7.73;;
46391;SDS011;32098;49.448;7.904;2023-02-21T08:23:17;10.27;;;7.40;;
46391;SDS011;32098;49.448;7.904;2023-02-21T08:25:45;11.20;;;7.50;;
46391;SDS011;32098;49.448;7.904;2023-02-21T08:28:13;10.70;;;8.00;;
46391;SDS011;32098;49.448;7.904;2023-02-21T08:30:42;14.67;;;9.57;;
46391;SDS011;32098;49.448;7.904;2023-02-21T08:33:10;17.10;;;10.97;;
46391;SDS011;32098;49.448;7.904;2023-02-21T08:35:37;17.47;;;11.13;;
46391;SDS011;32098;49.448;7.904;2023-02-21T08:38:04;16.90;;;12.27;;
46391;SDS011;32098;49.448;7.904;2023-02-21T08:40:31;16.83;;;11.47;;
46391;SDS011;32098;49.448;7.904;2023-02-21T08:42:58;16.73;;;12.00;;
46391;SDS011;32098;49.448;7.904;2023-02-21T08:45:27;16.40;;;12.17;;
46391;SDS011;32098;49.448;7.904;2023-02-21T08:47:55;18.20;;;11.87;;
46391;SDS011;32098;49.448;7.904;2023-02-21T08:50:23;17.37;;;11.57;;
46391;SDS011;32098;49.448;7.904;2023-02-21T08:52:57;15.50;;;11.40;;
46391;SDS011;32098;49.448;7.904;2023-02-21T08:55:23;17.13;;;10.43;;
46391;SDS011;32098;49.448;7.904;2023-02-21T08:57:51;15.80;;;11.38;;
46391;SDS011;32098;49.448;7.904;2023-02-21T09:00:21;16.70;;;11.52;;
46391;SDS011;32098;49.448;7.904;2023-02-21T09:02:51;15.27;;;10.50;;
46391;SDS011;32098;49.448;7.904;2023-02-21T09:05:19;14.63;;;10.75;;
46391;SDS011;32098;49.448;7.904;2023-02-21T09:07:50;17.52;;;11.02;;
46391;SDS011;32098;49.448;7.904;2023-02-21T09:10:20;16.73;;;10.20;;
46391;SDS011;32098;49.448;7.904;2023-02-21T09:12:48;14.55;;;11.18;;
46391;SDS011;32098;49.448;7.904;2023-02-21T09:15:15;16.92;;;11.80;;
46391;SDS011;32098;49.448;7.904;2023-02-21T09:17:44;17.20;;;11.55;;
46391;SDS011;32098;49.448;7.904;2023-02-21T09:20:14;15.88;;;11.15;;
46391;SDS011;32098;49.448;7.904;2023-02-21T09:22:44;15.38;;;11.30;;
46391;SDS011;32098;49.448;7.904;2023-02-21T09:25:11;17.10;;;12.23;;
46391;SDS011;32098;49.448;7.904;2023-02-21T09:27:39;15.55;;;11.13;;
46391;SDS011;32098;49.448;7.904;2023-02-21T09:30:10;17.60;;;12.07;;
46391;SDS011;32098;49.448;7.904;2023-02-21T09:32:40;19.05;;;12.00;;
46391;SDS011;32098;49.448;7.904;2023-02-21T09:35:08;17.58;;;12.38;;
46391;SDS011;32098;49.448;7.904;2023-02-21T09:37:36;16.80;;;11.38;;
46391;SDS011;32098;49.448;7.904;2023-02-21T09:40:13;15.63;;;10.65;;
46391;SDS011;32098;49.448;7.904;2023-02-21T09:42:44;16.55;;;10.65;;
46391;SDS011;32098;49.448;7.904;2023-02-21T09:45:15;14.68;;;10.20;;
46391;SDS011;32098;49.448;7.904;2023-02-21T09:47:42;15.27;;;9.70;;
46391;SDS011;32098;49.448;7.904;2023-02-21T09:50:15;13.38;;;9.13;;
46391;SDS011;32098;49.448;7.904;2023-02-21T09:52:45;12.05;;;8.10;;
46391;SDS011;32098;49.448;7.904;2023-02-21T09:57:56;12.23;;;8.50;;
46391;SDS011;32098;49.448;7.904;2023-02-21T10:00:42;12.00;;;8.18;;
46391;SDS011;32098;49.448;7.904;2023-02-21T10:06:21;10.77;;;7.10;;
46391;SDS011;32098;49.448;7.904;2023-02-21T10:08:58;10.70;;;7.78;;
46391;SDS011;32098;49.448;7.904;2023-02-21T10:14:29;10.43;;;7.13;;
46391;SDS011;32098;49.448;7.904;2023-02-21T10:17:38;9.40;;;6.13;;
46391;SDS011;32098;49.448;7.904;2023-02-21T10:22:59;9.18;;;5.88;;
46391;SDS011;32098;49.448;7.904;2023-02-21T10:25:29;7.53;;;5.38;;
46391;SDS011;32098;49.448;7.904;2023-02-21T10:27:58;8.07;;;5.50;;
46391;SDS011;32098;49.448;7.904;2023-02-21T10:30:32;8.20;;;4.80;;
46391;SDS011;32098;49.448;7.904;2023-02-21T10:33:03;7.00;;;4.57;;
46391;SDS011;32098;49.448;7.904;2023-02-21T10:35:34;9.15;;;4.80;;
46391;SDS011;32098;49.448;7.904;2023-02-21T10:38:03;10.75;;;6.63;;
46391;SDS011;32098;49.448;7.904;2023-02-21T10:40:39;10.20;;;6.47;;
46391;SDS011;32098;49.448;7.904;2023-02-21T10:43:27;6.60;;;4.68;;
46391;SDS011;32098;49.448;7.904;2023-02-21T10:48:37;7.90;;;3.42;;
46391;SDS011;32098;49.448;7.904;2023-02-21T10:51:17;4.47;;;3.17;;
46391;SDS011;32098;49.448;7.904;2023-02-21T10:53:58;6.97;;;3.78;;
46391;SDS011;32098;49.448;7.904;2023-02-21T10:56:45;4.47;;;3.28;;
46391;SDS011;32098;49.448;7.904;2023-02-21T10:59:21;5.38;;;3.42;;
46391;SDS011;32098;49.448;7.904;2023-02-21T11:01:51;4.90;;;3.00;;
46391;SDS011;32098;49.448;7.904;2023-02-21T11:06:47;3.85;;;2.78;;
46391;SDS011;32098;49.448;7.904;2023-02-21T11:12:16;8.05;;;4.13;;
46391;SDS011;32098;49.448;7.904;2023-02-21T11:17:22;4.75;;;3.10;;
46391;SDS011;32098;49.448;7.904;2023-02-21T11:22:23;3.58;;;2.63;;
46391;SDS011;32098;49.448;7.904;2023-02-21T11:24:59;5.32;;;2.63;;
46391;SDS011;32098;49.448;7.904;2023-02-21T11:27:34;4.15;;;3.00;;
46391;SDS011;32098;49.448;7.904;2023-02-21T11:30:10;3.65;;;2.38;;
46391;SDS011;32098;49.448;7.904;2023-02-21T11:32:49;2.35;;;1.90;;
46391;SDS011;32098;49.448;7.904;2023-02-21T11:37:54;5.60;;;2.55;;
46391;SDS011;32098;49.448;7.904;2023-02-21T11:43:11;5.00;;;2.40;;
46391;SDS011;32098;49.448;7.904;2023-02-21T11:45:56;2.83;;;1.92;;
46391;SDS011;32098;49.448;7.904;2023-02-21T11:48:28;2.67;;;1.88;;
46391;SDS011;32098;49.448;7.904;2023-02-21T11:51:07;5.38;;;2.00;;
46391;SDS011;32098;49.448;7.904;2023-02-21T11:53:43;3.13;;;2.03;;
46391;SDS011;32098;49.448;7.904;2023-02-21T11:56:14;5.15;;;2.50;;
46391;SDS011;32098;49.448;7.904;2023-02-21T12:01:31;2.50;;;1.60;;
46391;SDS011;32098;49.448;7.904;2023-02-21T12:04:13;3.58;;;2.30;;
46391;SDS011;32098;49.448;7.904;2023-02-21T12:09:43;4.45;;;2.95;;
46391;SDS011;32098;49.448;7.904;2023-02-21T12:15:11;5.85;;;4.38;;
46391;SDS011;32098;49.448;7.904;2023-02-21T12:17:47;6.07;;;3.65;;
46391;SDS011;32098;49.448;7.904;2023-02-21T12:23:31;3.47;;;1.98;;
46391;SDS011;32098;49.448;7.904;2023-02-21T12:31:45;2.35;;;1.88;;
46391;SDS011;32098;49.448;7.904;2023-02-21T12:34:50;2.20;;;1.70;;
46391;SDS011;32098;49.448;7.904;2023-02-21T12:37:49;2.50;;;1.85;;
46391;SDS011;32098;49.448;7.904;2023-02-21T12:40:35;2.25;;;1.75;;
46391;SDS011;32098;49.448;7.904;2023-02-21T12:43:37;2.63;;;1.77;;
46391;SDS011;32098;49.448;7.904;2023-02-21T12:49:05;4.63;;;2.17;;
46391;SDS011;32098;49.448;7.904;2023-02-21T12:51:38;3.13;;;1.67;;
46391;SDS011;32098;49.448;7.904;2023-02-21T12:54:13;2.47;;;1.50;;
46391;SDS011;32098;49.448;7.904;2023-02-21T12:59:27;2.65;;;1.95;;
46391;SDS011;32098;49.448;7.904;2023-02-21T13:02:00;2.40;;;1.70;;
46391;SDS011;32098;49.448;7.904;2023-02-21T13:04:41;2.63;;;1.73;;
46391;SDS011;32098;49.448;7.904;2023-02-21T13:07:14;1.77;;;1.27;;
46391;SDS011;32098;49.448;7.904;2023-02-21T13:12:55;3.50;;;1.45;;
46391;SDS011;32098;49.448;7.904;2023-02-21T13:15:28;1.55;;;1.40;;
46391;SDS011;32098;49.448;7.904;2023-02-21T13:18:10;1.85;;;1.13;;
46391;SDS011;32098;49.448;7.904;2023-02-21T13:20:52;1.15;;;0.80;;
46391;SDS011;32098;49.448;7.904;2023-02-21T13:23:26;1.60;;;0.98;;
46391;SDS011;32098;49.448;7.904;2023-02-21T13:26:51;1.80;;;1.13;;
46391;SDS011;32098;49.448;7.904;2023-02-21T13:29:41;1.00;;;0.80;;
46391;SDS011;32098;49.448;7.904;2023-02-21T13:32:11;1.58;;;1.10;;
46391;SDS011;32098;49.448;7.904;2023-02-21T13:34:46;1.83;;;0.93;;
46391;SDS011;32098;49.448;7.904;2023-02-21T13:37:18;1.67;;;1.00;;
46391;SDS011;32098;49.448;7.904;2023-02-21T13:39:55;2.47;;;0.80;;
46391;SDS011;32098;49.448;7.904;2023-02-21T13:42:28;1.17;;;0.80;;
46391;SDS011;32098;49.448;7.904;2023-02-21T13:48:09;1.42;;;0.95;;
46391;SDS011;32098;49.448;7.904;2023-02-21T13:58:37;2.60;;;1.92;;
46391;SDS011;32098;49.448;7.904;2023-02-21T14:07:38;1.95;;;1.75;;
46391;SDS011;32098;49.448;7.904;2023-02-21T14:10:24;0.70;;;0.40;;
46391;SDS011;32098;49.448;7.904;2023-02-21T14:13:00;2.65;;;1.70;;
46391;SDS011;32098;49.448;7.904;2023-02-21T14:15:41;1.58;;;0.90;;
46391;SDS011;32098;49.448;7.904;2023-02-21T14:18:15;1.25;;;1.15;;
46391;SDS011;32098;49.448;7.904;2023-02-21T14:20:48;1.13;;;0.68;;
46391;SDS011;32098;49.448;7.904;2023-02-21T14:23:18;0.82;;;0.70;;
46391;SDS011;32098;49.448;7.904;2023-02-21T14:25:54;1.67;;;0.90;;
46391;SDS011;32098;49.448;7.904;2023-02-21T14:34:21;1.75;;;0.80;;
46391;SDS011;32098;49.448;7.904;2023-02-21T14:36:52;1.20;;;1.10;;
46391;SDS011;32098;49.448;7.904;2023-02-21T14:39:23;1.33;;;0.80;;
46391;SDS011;32098;49.448;7.904;2023-02-21T14:42:04;3.33;;;1.90;;
46391;SDS011;32098;49.448;7.904;2023-02-21T14:44:53;1.13;;;0.90;;
46391;SDS011;32098;49.448;7.904;2023-02-21T14:47:53;4.80;;;4.13;;
46391;SDS011;32098;49.448;7.904;2023-02-21T14:50:24;0.75;;;0.40;;
46391;SDS011;32098;49.448;7.904;2023-02-21T14:53:20;1.08;;;0.60;;
46391;SDS011;32098;49.448;7.904;2023-02-21T14:56:18;4.00;;;2.22;;
46391;SDS011;32098;49.448;7.904;2023-02-21T14:59:20;1.90;;;0.85;;
46391;SDS011;32098;49.448;7.904;2023-02-21T15:05:17;3.95;;;2.35;;
46391;SDS011;32098;49.448;7.904;2023-02-21T15:10:39;1.00;;;0.80;;
46391;SDS011;32098;49.448;7.904;2023-02-21T15:13:22;2.85;;;1.92;;
46391;SDS011;32098;49.448;7.904;2023-02-21T15:15:57;1.30;;;1.10;;
46391;SDS011;32098;49.448;7.904;2023-02-21T15:18:40;3.03;;;1.80;;
46391;SDS011;32098;49.448;7.904;2023-02-21T15:21:22;0.98;;;0.88;;
46391;SDS011;32098;49.448;7.904;2023-02-21T15:24:00;3.25;;;2.38;;
46391;SDS011;32098;49.448;7.904;2023-02-21T15:26:34;3.60;;;2.25;;
46391;SDS011;32098;49.448;7.904;2023-02-21T15:31:40;1.40;;;1.23;;
46391;SDS011;32098;49.448;7.904;2023-02-21T15:34:16;3.63;;;2.08;;
46391;SDS011;32098;49.448;7.904;2023-02-21T15:36:51;3.60;;;1.90;;
46391;SDS011;32098;49.448;7.904;2023-02-21T15:39:31;3.25;;;1.85;;
46391;SDS011;32098;49.448;7.904;2023-02-21T15:42:02;3.88;;;2.13;;
46391;SDS011;32098;49.448;7.904;2023-02-21T15:47:32;0.65;;;0.65;;
46391;SDS011;32098;49.448;7.904;2023-02-21T15:50:15;7.90;;;5.53;;
46391;SDS011;32098;49.448;7.904;2023-02-21T15:52:49;1.70;;;1.38;;
46391;SDS011;32098;49.448;7.904;2023-02-21T15:55:26;2.08;;;1.10;;
46391;SDS011;32098;49.448;7.904;2023-02-21T15:57:59;3.17;;;1.15;;
46391;SDS011;32098;49.448;7.904;2023-02-21T16:00:36;1.75;;;1.08;;
46391;SDS011;32098;49.448;7.904;2023-02-21T16:03:26;2.10;;;1.25;;
46391;SDS011;32098;49.448;7.904;2023-02-21T16:09:19;1.50;;;0.77;;
46391;SDS011;32098;49.448;7.904;2023-02-21T16:12:34;1.40;;;0.70;;
46391;SDS011;32098;49.448;7.904;2023-02-21T16:14:59;0.52;;;0.50;;
46391;SDS011;32098;49.448;7.904;2023-02-21T16:17:52;0.70;;;0.60;;
46391;SDS011;32098;49.448;7.904;2023-02-21T16:20:22;3.00;;;2.00;;
46391;SDS011;32098;49.448;7.904;2023-02-21T16:28:37;193.75;;;156.13;;
46391;SDS011;32098;49.448;7.904;2023-02-21T16:31:13;118.68;;;92.97;;
46391;SDS011;32098;49.448;7.904;2023-02-21T16:34:11;504.70;;;400.02;;
46391;SDS011;32098;49.448;7.904;2023-02-21T16:36:38;98.43;;;68.18;;
46391;SDS011;32098;49.448;7.904;2023-02-21T16:39:07;26.88;;;18.45;;
46391;SDS011;32098;49.448;7.904;2023-02-21T16:41:35;18.30;;;13.30;;
46391;SDS011;32098;49.448;7.904;2023-02-21T16:44:02;110.18;;;71.03;;
46391;SDS011;32098;49.448;7.904;2023-02-21T16:46:29;758.10;;;517.83;;
46391;SDS011;32098;49.448;7.904;2023-02-21T16:48:58;539.47;;;359.70;;
46391;SDS011;32098;49.448;7.904;2023-02-21T16:51:25;697.03;;;493.13;;
46391;SDS011;32098;49.448;7.904;2023-02-21T16:53:58;174.98;;;104.65;;
46391;SDS011;32098;49.448;7.904;2023-02-21T16:56:25;98.70;;;71.27;;
46391;SDS011;32098;49.448;7.904;2023-02-21T16:58:53;150.30;;;101.23;;
46391;SDS011;32098;49.448;7.904;2023-02-21T17:01:26;43.17;;;28.40;;
46391;SDS011;32098;49.448;7.904;2023-02-21T17:03:55;233.50;;;192.00;;
46391;SDS011;32098;49.448;7.904;2023-02-21T17:06:23;170.27;;;128.90;;
46391;SDS011;32098;49.448;7.904;2023-02-21T17:08:55;24.70;;;17.07;;
46391;SDS011;32098;49.448;7.904;2023-02-21T17:11:22;10.20;;;5.40;;
46391;SDS011;32098;49.448;7.904;2023-02-21T17:13:50;1.80;;;1.40;;
46391;SDS011;32098;49.448;7.904;2023-02-21T17:16:18;2.57;;;1.40;;
46391;SDS011;32098;49.448;7.904;2023-02-21T17:18:45;2.40;;;1.80;;
46391;SDS011;32098;49.448;7.904;2023-02-21T17:21:14;2.40;;;1.63;;
46391;SDS011;32098;49.448;7.904;2023-02-21T17:23:41;1.73;;;1.40;;